Time;durP1;ratioP1;P1;durP2;ratioP2;P2;SDS_P1;SDS_P2;PMS_P1;PMS_P2;Temp;Humidity;BMP_temperature;BMP_pressure;BME280_temperature;BME280_humidity;BME280_pressure;Samples;Min_cycle;Max_cycle;Signal;HPM_P1;HPM_P2
2022/11/05 00:09:41;;;;;;;11.70;2.70;;;;;;;11.49;66.28;100622.06;4943414;28;119329;-72
2022/11/05 00:17:41;;;;;;;14.35;2.67;;;;;;;11.61;66.88;100621.94;4947372;28;119510;-71
2022/11/05 00:20:09;;;;;;;19.33;2.90;;;;;;;11.68;66.75;100620.84;4954778;28;119643;-72
2022/11/05 00:25:20;;;;;;;13.63;2.50;;;;;;;11.84;66.95;100634.31;4935644;28;119322;-71
2022/11/05 00:28:00;;;;;;;12.07;2.20;;;;;;;11.90;66.55;100623.47;4946935;28;119395;-72
2022/11/05 00:30:27;;;;;;;14.05;2.70;;;;;;;11.96;66.34;100630.63;4949120;28;119660;-72
2022/11/05 00:32:59;;;;;;;13.93;2.70;;;;;;;12.04;66.43;100636.56;4936657;28;120004;-72
2022/11/05 00:35:25;;;;;;;14.07;2.57;;;;;;;12.08;65.99;100634.44;4948663;28;119727;-71
2022/11/05 00:37:52;;;;;;;14.47;2.70;;;;;;;12.16;66.02;100637.63;4953464;28;120117;-72
2022/11/05 00:40:18;;;;;;;13.52;2.70;;;;;;;12.15;66.00;100625.84;4933663;28;119623;-73
2022/11/05 00:45:37;;;;;;;14.70;2.35;;;;;;;12.42;64.82;100644.25;4939128;28;119279;-73
2022/11/05 00:50:48;;;;;;;11.43;2.60;;;;;;;12.54;64.53;100642.56;4940634;28;120386;-72
2022/11/05 00:53:22;;;;;;;13.40;2.57;;;;;;;12.54;64.50;100640.56;4949333;28;119967;-73
2022/11/05 00:55:48;;;;;;;14.63;2.80;;;;;;;12.59;64.18;100639.16;4947385;28;120182;-72
2022/11/05 00:58:19;;;;;;;14.27;2.33;;;;;;;12.62;63.68;100648.47;4958109;28;119499;-73
2022/11/05 01:00:59;;;;;;;16.17;2.72;;;;;;;12.60;63.79;100638.69;4946018;28;119867;-75
2022/11/05 01:03:37;;;;;;;13.85;2.70;;;;;;;12.62;63.82;100652.00;4949797;28;120320;-73
2022/11/05 01:06:10;;;;;;;10.98;2.55;;;;;;;12.59;63.97;100644.66;4955439;28;119383;-73
2022/11/05 01:08:36;;;;;;;13.33;2.87;;;;;;;12.56;64.05;100646.38;4954854;28;119646;-73
2022/11/05 01:11:31;;;;;;;12.93;2.60;;;;;;;12.54;64.07;100653.56;4949427;28;119754;-70
2022/11/05 01:14:03;;;;;;;14.65;2.47;;;;;;;12.54;64.80;100645.31;4960082;28;119076;-73
2022/11/05 01:16:31;;;;;;;15.40;2.60;;;;;;;12.54;64.64;100654.31;4957308;28;120001;-73
2022/11/05 01:18:56;;;;;;;12.73;2.42;;;;;;;12.57;64.74;100658.88;4928047;28;119600;-71
2022/11/05 01:21:22;;;;;;;12.13;2.80;;;;;;;12.60;65.08;100649.69;4948651;28;119831;-70
2022/11/05 01:23:48;;;;;;;14.93;2.70;;;;;;;12.64;65.18;100652.28;4949538;28;120153;-72
2022/11/05 01:26:14;;;;;;;12.87;2.50;;;;;;;12.70;65.13;100644.91;4947530;28;119626;-70
2022/11/05 01:29:03;;;;;;;11.73;2.58;;;;;;;12.74;64.42;100642.75;4934099;28;119904;-72
2022/11/05 01:31:31;;;;;;;9.73;2.17;;;;;;;12.78;64.48;100648.88;4948375;28;119792;-73
2022/11/05 01:33:59;;;;;;;11.40;2.43;;;;;;;12.82;64.36;100640.44;4949827;28;119702;-73
2022/11/05 01:36:27;;;;;;;15.55;2.65;;;;;;;12.87;63.70;100656.31;4951695;28;120356;-72
2022/11/05 01:39:01;;;;;;;14.07;2.40;;;;;;;12.88;63.61;100641.31;4939750;28;120084;-73
2022/11/05 01:41:27;;;;;;;13.23;2.70;;;;;;;12.86;63.91;100639.03;4948345;28;120085;-75
2022/11/05 01:43:56;;;;;;;14.00;2.42;;;;;;;12.87;63.86;100637.81;4949098;28;119848;-72
2022/11/05 01:46:33;;;;;;;14.70;2.85;;;;;;;12.88;63.76;100635.81;4946222;28;119645;-72
2022/11/05 01:49:16;;;;;;;10.35;2.50;;;;;;;12.87;63.57;100635.06;4935949;28;119486;-76
2022/11/05 01:51:44;;;;;;;12.95;2.55;;;;;;;12.88;64.03;100642.09;4936339;28;119803;-75
2022/11/05 01:54:15;;;;;;;15.83;2.80;;;;;;;12.86;63.24;100633.53;4947574;28;119368;-75
2022/11/05 01:56:50;;;;;;;14.98;2.78;;;;;;;12.85;63.28;100637.50;4945065;28;119805;-75
2022/11/05 01:59:23;;;;;;;15.05;2.90;;;;;;;12.82;63.36;100632.19;4925621;28;120065;-76
2022/11/05 02:01:50;;;;;;;14.02;2.65;;;;;;;12.77;63.11;100630.81;4933169;28;119835;-75
2022/11/05 02:04:35;;;;;;;14.07;2.87;;;;;;;12.73;63.02;100648.72;4926476;28;122206;-75
2022/11/05 02:07:02;;;;;;;13.85;2.60;;;;;;;12.68;62.98;100646.59;4944309;28;119820;-76
2022/11/05 02:09:40;;;;;;;14.13;2.30;;;;;;;12.62;63.05;100640.22;4945980;28;119970;-75
2022/11/05 02:12:08;;;;;;;12.13;2.45;;;;;;;12.46;63.32;100627.59;4946724;28;120385;-76
2022/11/05 02:14:33;;;;;;;9.68;2.45;;;;;;;12.49;63.65;100640.41;4928489;28;119852;-76
2022/11/05 02:17:17;;;;;;;14.85;2.45;;;;;;;12.44;63.50;100647.31;4942441;28;120371;-76
2022/11/05 02:19:49;;;;;;;15.13;3.00;;;;;;;12.38;63.57;100637.41;4947495;28;119741;-75
2022/11/05 02:22:53;;;;;;;12.60;2.63;;;;;;;12.30;63.59;100650.69;4933767;28;119988;-73
2022/11/05 02:25:33;;;;;;;12.63;2.67;;;;;;;12.21;63.91;100648.75;4945981;28;120735;-73
2022/11/05 02:28:08;;;;;;;11.00;2.70;;;;;;;12.15;63.23;100647.84;4918700;28;119512;-73
2022/11/05 02:30:33;;;;;;;13.17;2.57;;;;;;;12.09;63.46;100649.69;4945539;28;119489;-73
2022/11/05 02:33:17;;;;;;;16.50;2.57;;;;;;;12.02;63.03;100657.47;4946402;28;121189;-73
2022/11/05 02:35:56;;;;;;;11.77;2.85;;;;;;;11.90;63.30;100654.47;4948119;28;119815;-75
2022/11/05 02:38:31;;;;;;;13.63;2.50;;;;;;;11.84;63.02;100661.81;4944600;28;120731;-76
2022/11/05 02:41:35;;;;;;;16.15;2.67;;;;;;;11.75;63.56;100653.50;4945325;28;119993;-72
2022/11/05 02:44:34;;;;;;;13.37;2.40;;;;;;;11.67;63.70;100661.31;4899838;28;120145;-76
2022/11/05 02:47:30;;;;;;;11.05;2.33;;;;;;;11.61;63.84;100659.63;4940036;28;119898;-74
2022/11/05 02:49:58;;;;;;;13.25;2.78;;;;;;;11.54;64.02;100660.69;4930914;28;119984;-73
2022/11/05 02:52:35;;;;;;;11.93;2.85;;;;;;;11.48;64.26;100665.25;4939339;28;119992;-73
2022/11/05 02:55:26;;;;;;;13.10;2.45;;;;;;;11.44;64.47;100667.41;4954561;28;119970;-76
2022/11/05 02:57:54;;;;;;;14.73;2.60;;;;;;;11.37;64.55;100662.97;4943026;28;120042;-73
2022/11/05 03:00:56;;;;;;;16.55;2.83;;;;;;;11.37;64.66;100670.44;4946715;28;119891;-73
2022/11/05 03:03:47;;;;;;;13.13;2.63;;;;;;;11.32;63.97;100665.53;4868467;28;119668;-73
2022/11/05 03:06:29;;;;;;;15.30;2.88;;;;;;;11.25;64.53;100665.84;4947312;28;119544;-75
2022/11/05 03:09:24;;;;;;;15.10;2.72;;;;;;;11.21;64.52;100668.75;4947825;28;120304;-75
2022/11/05 03:12:28;;;;;;;10.97;2.40;;;;;;;11.16;64.28;100676.81;4946421;28;121433;-75
2022/11/05 03:15:39;;;;;;;12.33;2.87;;;;;;;11.08;64.74;100671.59;4944409;28;119771;-74
2022/11/05 03:18:56;;;;;;;12.95;2.72;;;;;;;11.03;64.74;100674.94;4945979;28;120409;-75
2022/11/05 03:21:56;;;;;;;12.13;2.55;;;;;;;10.96;64.62;100677.97;4878111;28;120453;-75
2022/11/05 03:24:27;;;;;;;13.10;2.65;;;;;;;10.92;64.52;100669.13;4915626;28;121189;-75
2022/11/05 03:27:09;;;;;;;13.85;3.10;;;;;;;10.91;64.11;100686.81;4947084;28;119598;-75
2022/11/05 03:29:48;;;;;;;13.75;2.72;;;;;;;10.87;64.12;100680.66;4945585;28;119451;-75
2022/11/05 03:32:16;;;;;;;14.50;2.90;;;;;;;10.82;63.85;100684.00;4953132;28;119787;-76
2022/11/05 03:34:47;;;;;;;13.00;2.73;;;;;;;10.77;64.34;100690.09;4951079;28;119710;-75
2022/11/05 03:37:18;;;;;;;16.27;3.00;;;;;;;10.76;65.10;100692.06;4941772;28;119403;-75
2022/11/05 03:39:47;;;;;;;11.15;2.50;;;;;;;10.73;64.85;100697.69;4945119;28;120220;-75
2022/11/05 03:42:25;;;;;;;11.75;2.50;;;;;;;10.68;65.24;100695.56;4943404;28;119690;-75
2022/11/05 03:44:55;;;;;;;13.85;3.00;;;;;;;10.65;64.67;100699.97;4925394;28;119520;-74
2022/11/05 03:47:31;;;;;;;11.32;2.78;;;;;;;10.64;64.64;100700.38;4939951;28;119411;-74
2022/11/05 03:50:03;;;;;;;10.40;2.40;;;;;;;10.60;64.84;100697.00;4943603;28;119966;-75
2022/11/05 03:52:34;;;;;;;10.27;2.60;;;;;;;10.56;65.16;100699.91;4940739;28;119817;-74
2022/11/05 03:55:00;;;;;;;16.23;3.00;;;;;;;10.52;65.02;100693.03;4951415;28;120432;-75
2022/11/05 03:57:31;;;;;;;13.60;2.83;;;;;;;10.56;65.51;100704.63;4953646;28;119437;-75
2022/11/05 03:59:57;;;;;;;12.17;2.63;;;;;;;10.55;64.91;100703.84;4950037;28;119832;-75
2022/11/05 04:02:25;;;;;;;13.18;2.60;;;;;;;10.53;64.60;100709.03;4933224;28;119902;-75
2022/11/05 04:04:58;;;;;;;11.88;2.60;;;;;;;10.48;64.83;100703.38;4947006;28;119267;-73
2022/11/05 04:18:23;;;;;;;12.93;2.70;;;;;;;10.54;66.53;100715.28;4948324;28;119679;-73
2022/11/05 04:26:22;;;;;;;13.57;2.60;;;;;;;10.66;66.07;100719.94;4945349;28;119327;-74
2022/11/05 04:31:37;;;;;;;11.75;2.75;;;;;;;10.74;66.52;100724.69;4945466;28;119738;-78
2022/11/05 04:34:02;;;;;;;14.10;2.40;;;;;;;10.79;66.63;100723.34;4933470;28;120258;-73
2022/11/05 04:36:28;;;;;;;13.27;2.80;;;;;;;10.84;66.23;100728.22;4948491;28;119569;-73
2022/11/05 04:38:54;;;;;;;12.90;2.63;;;;;;;10.87;66.15;100721.06;4954417;28;119362;-76
2022/11/05 04:41:20;;;;;;;15.83;2.50;;;;;;;10.89;65.54;100710.44;4932656;28;120082;-76
2022/11/05 04:43:46;;;;;;;12.98;2.67;;;;;;;10.90;65.08;100720.97;4940583;28;119909;-74
2022/11/05 04:46:12;;;;;;;12.65;2.47;;;;;;;10.89;65.07;100727.66;4947792;28;120629;-76
2022/11/05 04:48:37;;;;;;;13.07;2.58;;;;;;;10.86;65.35;100714.81;4950058;28;119448;-75
2022/11/05 04:51:04;;;;;;;12.73;2.63;;;;;;;10.84;65.09;100711.75;4950218;28;119849;-74
2022/11/05 04:53:30;;;;;;;9.70;2.15;;;;;;;10.77;64.88;100709.31;4948034;28;120895;-72
2022/11/05 04:56:09;;;;;;;12.47;2.63;;;;;;;10.77;64.35;100714.78;4959141;28;120121;-73
2022/11/05 04:58:38;;;;;;;10.43;2.50;;;;;;;10.70;64.84;100715.06;4944767;28;119317;-74
2022/11/05 05:01:04;;;;;;;13.65;2.88;;;;;;;10.67;64.61;100724.19;4952419;28;120350;-73
2022/11/05 05:03:30;;;;;;;10.30;2.60;;;;;;;10.65;64.87;100727.41;4950688;28;119242;-73
2022/11/05 05:05:58;;;;;;;12.85;2.83;;;;;;;10.62;65.30;100730.25;4948442;28;120177;-73
2022/11/05 05:08:24;;;;;;;13.90;2.88;;;;;;;10.60;65.92;100727.94;4940899;28;119971;-73
2022/11/05 05:10:49;;;;;;;11.02;2.17;;;;;;;10.61;65.27;100737.72;4932544;28;119570;-74
2022/11/05 05:13:15;;;;;;;12.63;2.78;;;;;;;10.59;65.73;100736.63;4948611;28;120190;-73
2022/11/05 05:15:41;;;;;;;11.10;2.70;;;;;;;10.56;65.29;100732.03;4946032;28;119933;-76
2022/11/05 05:18:08;;;;;;;14.55;2.70;;;;;;;10.55;65.71;100739.50;4943213;28;119396;-73
2022/11/05 05:23:17;;;;;;;10.43;2.30;;;;;;;10.55;65.43;100738.75;4948348;28;120449;-74
2022/11/05 05:25:43;;;;;;;9.88;2.40;;;;;;;10.52;65.88;100731.41;4945232;28;119326;-75
2022/11/05 05:28:09;;;;;;;11.35;2.80;;;;;;;10.54;65.73;100737.97;4946398;28;119598;-73
2022/11/05 05:30:35;;;;;;;13.00;2.70;;;;;;;10.52;65.43;100734.16;4906290;28;119242;-73
2022/11/05 05:33:02;;;;;;;12.65;3.05;;;;;;;10.51;65.77;100733.41;4947906;28;119575;-74
2022/11/05 05:35:28;;;;;;;11.37;3.00;;;;;;;10.49;66.40;100726.84;4948139;28;119729;-74
2022/11/05 05:37:55;;;;;;;16.35;2.90;;;;;;;10.48;66.55;100723.31;4948120;28;120160;-73
2022/11/05 05:40:21;;;;;;;9.55;2.80;;;;;;;10.53;66.20;100735.69;4943929;28;119619;-75
2022/11/05 05:42:52;;;;;;;11.75;2.92;;;;;;;10.53;66.55;100741.19;4944781;28;119545;-72
2022/11/05 05:45:18;;;;;;;10.50;2.80;;;;;;;10.53;66.26;100735.69;4949229;28;119979;-74
2022/11/05 05:47:43;;;;;;;15.18;2.90;;;;;;;10.53;65.72;100739.19;4947902;28;119456;-77
2022/11/05 05:50:09;;;;;;;13.63;2.65;;;;;;;10.51;64.75;100738.88;4950711;28;122099;-73
2022/11/05 05:52:35;;;;;;;10.57;2.63;;;;;;;10.46;64.97;100739.47;4949356;28;119374;-75
2022/11/05 05:55:01;;;;;;;12.50;3.30;;;;;;;10.42;65.69;100747.81;4947257;28;119740;-73
2022/11/05 05:57:27;;;;;;;9.97;2.90;;;;;;;10.38;64.62;100741.69;4956072;28;119467;-76
2022/11/05 05:59:52;;;;;;;12.57;3.30;;;;;;;10.37;65.60;100742.91;4957372;28;119503;-76
2022/11/05 06:02:18;;;;;;;11.82;3.10;;;;;;;10.35;65.12;100753.56;4940907;28;119924;-76
2022/11/05 06:04:44;;;;;;;11.60;3.30;;;;;;;10.34;65.03;100757.50;4929995;28;120103;-73
2022/11/05 06:07:32;;;;;;;13.45;3.60;;;;;;;10.31;66.13;100750.19;4940233;28;119571;-79
2022/11/05 06:09:58;;;;;;;9.82;3.22;;;;;;;10.34;65.77;100759.47;4948002;28;120456;-74
2022/11/05 06:12:28;;;;;;;10.90;3.22;;;;;;;10.35;65.93;100764.50;4940091;28;119675;-73
2022/11/05 06:15:15;;;;;;;12.68;3.40;;;;;;;10.34;66.45;100768.47;4931971;28;119229;-75
2022/11/05 06:17:59;;;;;;;14.57;3.35;;;;;;;10.33;66.55;100764.19;4945074;28;119673;-76
2022/11/05 06:20:25;;;;;;;14.43;3.40;;;;;;;10.34;66.92;100768.47;4948367;28;119854;-78
2022/11/05 06:22:55;;;;;;;12.80;3.90;;;;;;;10.35;66.55;100775.47;4944255;28;119705;-74
2022/11/05 06:25:44;;;;;;;16.23;3.50;;;;;;;10.37;67.23;100769.56;4885486;28;120238;-73
2022/11/05 06:28:09;;;;;;;12.07;3.50;;;;;;;10.39;67.43;100778.84;4940845;28;120125;-74
2022/11/05 06:30:35;;;;;;;15.03;3.70;;;;;;;10.42;67.11;100788.97;4945689;28;119873;-75
2022/11/05 06:33:03;;;;;;;16.93;3.80;;;;;;;10.44;67.06;100783.78;4947852;28;119860;-76
2022/11/05 06:35:30;;;;;;;14.15;3.50;;;;;;;10.44;67.44;100789.28;4948853;28;119564;-75
2022/11/05 06:38:00;;;;;;;14.38;3.70;;;;;;;10.49;67.72;100787.16;4944809;28;120084;-73
2022/11/05 06:40:26;;;;;;;11.20;3.60;;;;;;;10.53;67.40;100790.53;4953468;28;120520;-74
2022/11/05 06:42:53;;;;;;;15.38;3.58;;;;;;;10.56;66.92;100789.66;4922974;28;121902;-73
2022/11/05 06:45:39;;;;;;;12.13;3.50;;;;;;;10.56;66.84;100786.91;4941567;28;119531;-73
2022/11/05 06:48:05;;;;;;;13.97;3.73;;;;;;;10.57;66.07;100794.69;4948375;28;119481;-73
2022/11/05 06:50:30;;;;;;;12.38;3.60;;;;;;;10.56;66.21;100795.13;4947141;28;119736;-73
2022/11/05 06:52:59;;;;;;;11.73;4.07;;;;;;;10.51;66.65;100785.50;4946944;28;119717;-76
2022/11/05 06:55:26;;;;;;;14.35;3.72;;;;;;;10.54;66.48;100789.31;4949711;28;119631;-73
2022/11/05 06:57:52;;;;;;;13.10;4.00;;;;;;;10.57;66.75;100789.19;4956398;28;119527;-74
2022/11/05 07:00:22;;;;;;;15.65;3.63;;;;;;;10.54;66.96;100787.34;4945271;28;119959;-74
2022/11/05 07:02:48;;;;;;;15.68;3.97;;;;;;;10.60;66.79;100784.78;4924319;28;120632;-76
2022/11/05 07:05:15;;;;;;;11.80;3.70;;;;;;;10.65;67.21;100789.72;4938196;28;120001;-76
2022/11/05 07:07:42;;;;;;;11.45;3.65;;;;;;;10.70;66.79;100789.91;4938271;28;119682;-75
2022/11/05 07:10:12;;;;;;;12.57;3.50;;;;;;;10.74;66.80;100792.50;4941199;28;119464;-75
2022/11/05 07:12:38;;;;;;;11.63;3.33;;;;;;;10.79;67.18;100796.66;4938572;28;120115;-77
2022/11/05 07:15:04;;;;;;;12.80;3.40;;;;;;;10.82;67.10;100798.50;4938119;28;119521;-75
2022/11/05 07:17:30;;;;;;;14.07;3.47;;;;;;;10.85;67.79;100803.06;4944162;28;120017;-76
2022/11/05 07:19:56;;;;;;;11.55;3.30;;;;;;;10.88;67.70;100800.19;4935849;28;120277;-78
2022/11/05 07:22:24;;;;;;;13.03;3.30;;;;;;;10.93;67.76;100794.16;4940362;28;119977;-75
2022/11/05 07:24:50;;;;;;;12.93;3.27;;;;;;;11.00;67.43;100804.09;4942364;28;119638;-72
2022/11/05 07:27:16;;;;;;;12.73;3.50;;;;;;;11.04;67.17;100808.22;4942099;28;120662;-72
2022/11/05 07:29:41;;;;;;;11.40;3.03;;;;;;;11.12;66.90;100805.19;4940301;28;120124;-73
2022/11/05 07:32:07;;;;;;;12.95;3.30;;;;;;;11.14;66.89;100814.53;4937830;28;119857;-72
2022/11/05 07:34:33;;;;;;;10.85;3.20;;;;;;;11.22;66.89;100815.00;4940112;28;119368;-74
2022/11/05 07:36:59;;;;;;;12.15;3.30;;;;;;;11.25;67.05;100814.13;4941898;28;119638;-74
2022/11/05 07:39:24;;;;;;;11.70;2.90;;;;;;;11.31;67.09;100823.28;4951777;28;119643;-73
2022/11/05 07:41:53;;;;;;;16.60;3.47;;;;;;;11.37;67.19;100821.50;4940686;28;120103;-74
2022/11/05 07:44:22;;;;;;;13.83;3.10;;;;;;;11.47;66.97;100825.03;4937845;28;119475;-75
2022/11/05 07:46:48;;;;;;;12.77;3.10;;;;;;;11.51;66.83;100826.41;4940144;28;120257;-73
2022/11/05 07:49:14;;;;;;;13.87;3.30;;;;;;;11.58;66.47;100823.38;4939119;28;120021;-75
2022/11/05 07:51:40;;;;;;;14.80;3.05;;;;;;;11.68;66.84;100829.69;4936301;28;119730;-74
2022/11/05 07:54:05;;;;;;;13.13;3.78;;;;;;;11.76;66.67;100827.41;4931970;28;120084;-76
2022/11/05 07:56:31;;;;;;;12.90;4.05;;;;;;;11.85;66.74;100822.72;4933236;28;119822;-75
2022/11/05 07:58:57;;;;;;;16.02;3.90;;;;;;;11.94;66.37;100830.22;4933861;28;120352;-72
2022/11/05 08:01:23;;;;;;;12.20;3.83;;;;;;;12.00;66.72;100828.38;4908238;28;121006;-71
2022/11/05 08:03:48;;;;;;;12.88;3.70;;;;;;;12.06;66.62;100826.56;4933635;28;120418;-72
2022/11/05 08:06:17;;;;;;;12.87;4.13;;;;;;;12.15;66.74;100840.34;4932524;28;119564;-72
2022/11/05 08:08:43;;;;;;;12.60;4.30;;;;;;;12.20;66.28;100833.47;4934263;28;120698;-76
2022/11/05 08:11:10;;;;;;;12.50;3.90;;;;;;;12.29;65.93;100838.94;4932235;28;119464;-77
2022/11/05 08:13:36;;;;;;;12.60;3.58;;;;;;;12.36;66.42;100844.16;4948428;28;119543;-77
2022/11/05 08:16:03;;;;;;;15.68;3.13;;;;;;;12.41;66.75;100824.28;4934883;28;119803;-72
2022/11/05 08:18:30;;;;;;;11.75;2.70;;;;;;;12.47;66.54;100832.69;4930533;28;120303;-72
2022/11/05 08:21:05;;;;;;;12.18;2.95;;;;;;;12.51;66.58;100831.31;4933957;28;120858;-74
2022/11/05 08:23:31;;;;;;;10.40;2.90;;;;;;;12.57;66.48;100835.00;4939640;28;119997;-73
2022/11/05 08:25:57;;;;;;;11.65;3.00;;;;;;;12.65;66.37;100834.66;4934479;28;119814;-73
2022/11/05 08:28:24;;;;;;;11.00;2.80;;;;;;;12.71;66.05;100835.56;4935430;28;120448;-73
2022/11/05 08:30:52;;;;;;;14.93;3.10;;;;;;;12.78;66.06;100838.03;4935500;28;119870;-76
2022/11/05 08:33:19;;;;;;;11.47;3.47;;;;;;;12.85;65.92;100840.47;4934863;28;119915;-76
2022/11/05 08:35:50;;;;;;;14.75;3.78;;;;;;;12.93;65.96;100840.88;4902676;28;120925;-73
2022/11/05 08:38:18;;;;;;;11.70;3.70;;;;;;;13.00;66.41;100837.81;4918404;28;120006;-73
2022/11/05 08:40:52;;;;;;;12.35;3.83;;;;;;;13.06;66.11;100833.22;4931928;28;119752;-73
2022/11/05 08:43:17;;;;;;;16.27;6.68;;;;;;;13.13;66.03;100839.16;4932010;28;120472;-75
2022/11/05 08:45:43;;;;;;;13.23;4.90;;;;;;;13.20;65.86;100822.31;4937426;28;119601;-74
2022/11/05 08:48:11;;;;;;;10.73;3.20;;;;;;;13.26;65.52;100825.22;4932274;28;120391;-73
2022/11/05 08:50:38;;;;;;;11.13;2.92;;;;;;;13.36;65.41;100837.72;4933099;28;119826;-72
2022/11/05 08:53:05;;;;;;;10.30;2.90;;;;;;;13.40;65.56;100832.03;4937516;28;120288;-71
2022/11/05 08:55:32;;;;;;;11.15;2.67;;;;;;;13.45;64.85;100825.88;4931527;28;122148;-76
2022/11/05 08:57:59;;;;;;;11.95;2.67;;;;;;;13.48;65.36;100836.75;4932557;28;120073;-72
2022/11/05 09:00:27;;;;;;;9.73;2.47;;;;;;;13.54;65.14;100839.66;4931948;28;119895;-76
2022/11/05 09:02:52;;;;;;;11.55;2.53;;;;;;;13.59;65.04;100841.75;4933618;28;121147;-72
2022/11/05 09:05:18;;;;;;;10.43;2.50;;;;;;;13.65;65.10;100852.91;4938434;28;119573;-74
2022/11/05 09:07:45;;;;;;;8.80;2.30;;;;;;;13.68;64.80;100847.22;4932879;28;120358;-74
2022/11/05 09:10:34;;;;;;;7.40;1.90;;;;;;;13.73;64.82;100851.34;4935780;28;119885;-73
2022/11/05 09:13:00;;;;;;;9.90;2.53;;;;;;;13.77;64.95;100851.94;4936829;28;119605;-74
2022/11/05 09:15:27;;;;;;;8.80;2.13;;;;;;;13.85;65.04;100855.84;4938019;28;120233;-73
2022/11/05 09:17:54;;;;;;;8.73;2.38;;;;;;;13.91;65.23;100855.97;4920042;28;119894;-75
2022/11/05 09:20:23;;;;;;;9.48;2.28;;;;;;;13.99;65.45;100859.94;4935287;28;119791;-77
2022/11/05 09:22:58;;;;;;;10.50;2.67;;;;;;;14.08;65.46;100857.84;4921864;28;122862;-72
2022/11/05 09:25:25;;;;;;;9.65;2.80;;;;;;;14.18;65.77;100858.53;4935048;28;120646;-74
2022/11/05 09:27:50;;;;;;;7.47;2.10;;;;;;;14.28;65.01;100857.25;4942424;28;119795;-73
2022/11/05 09:30:16;;;;;;;8.07;2.35;;;;;;;14.34;65.27;100860.13;4938491;28;120339;-75
2022/11/05 09:32:47;;;;;;;8.25;2.20;;;;;;;14.43;65.30;100852.59;4933071;28;120002;-78
2022/11/05 09:35:12;;;;;;;7.60;2.27;;;;;;;14.52;65.31;100862.00;4933399;28;122262;-75
2022/11/05 09:37:45;;;;;;;10.17;2.40;;;;;;;14.63;65.32;100860.22;4933372;28;120099;-73
2022/11/05 09:40:16;;;;;;;10.13;2.37;;;;;;;14.69;64.76;100861.09;4935959;28;120017;-77
2022/11/05 09:42:45;;;;;;;8.93;2.60;;;;;;;14.70;64.00;100859.88;4934016;28;120128;-76
2022/11/05 09:45:17;;;;;;;9.07;2.53;;;;;;;14.70;64.10;100865.38;4922120;28;120246;-72
2022/11/05 09:48:09;;;;;;;7.20;2.40;;;;;;;14.67;64.25;100863.56;4937750;28;119797;-73
2022/11/05 09:50:41;;;;;;;8.15;2.10;;;;;;;14.64;64.56;100866.50;4939776;28;120073;-76
2022/11/05 09:53:13;;;;;;;6.17;1.63;;;;;;;14.63;64.35;100865.72;4933226;28;120254;-74
2022/11/05 09:56:01;;;;;;;7.57;1.50;;;;;;;14.67;64.17;100869.09;4936295;28;120029;-74
2022/11/05 09:58:39;;;;;;;5.80;1.40;;;;;;;14.73;64.19;100869.19;4939323;28;119963;-76
2022/11/05 10:01:23;;;;;;;6.25;1.63;;;;;;;14.78;64.14;100871.28;4939007;28;120011;-72
2022/11/05 10:03:54;;;;;;;5.88;1.25;;;;;;;14.84;63.37;100869.38;4944277;28;120124;-73
2022/11/05 10:06:26;;;;;;;5.80;1.43;;;;;;;14.94;62.72;100870.84;4940245;28;119876;-72
2022/11/05 10:09:06;;;;;;;4.50;1.50;;;;;;;14.98;62.78;100871.41;4944267;28;120081;-74
2022/11/05 10:11:38;;;;;;;4.97;1.10;;;;;;;15.05;61.89;100878.53;4943402;28;120364;-73
2022/11/05 10:14:30;;;;;;;4.00;1.00;;;;;;;15.08;61.54;100874.06;4944139;28;120404;-72
2022/11/05 10:17:10;;;;;;;3.40;0.80;;;;;;;15.13;61.12;100876.91;4922534;28;120107;-73
2022/11/05 10:19:51;;;;;;;3.78;0.93;;;;;;;15.21;61.33;100886.34;4941522;28;119551;-72
2022/11/05 10:22:19;;;;;;;5.80;1.40;;;;;;;15.29;60.70;100887.47;4939530;28;119899;-72
2022/11/05 10:24:48;;;;;;;4.15;1.05;;;;;;;15.35;60.04;100882.03;4941095;28;120184;-73
2022/11/05 10:27:29;;;;;;;3.47;1.00;;;;;;;15.43;60.91;100885.19;4944109;28;119954;-75
2022/11/05 10:29:55;;;;;;;5.53;1.10;;;;;;;15.49;60.38;100886.03;4941160;28;119893;-72
2022/11/05 10:32:38;;;;;;;3.28;1.00;;;;;;;15.52;59.35;100877.53;4927654;28;120675;-72
2022/11/05 10:35:07;;;;;;;3.92;1.10;;;;;;;15.60;59.78;100886.97;4939827;28;119621;-73
2022/11/05 10:37:34;;;;;;;5.18;1.40;;;;;;;15.69;60.34;100890.91;4942442;28;119994;-74
2022/11/05 10:40:00;;;;;;;3.95;1.05;;;;;;;15.75;60.92;100891.72;4940744;28;120257;-73
2022/11/05 10:42:53;;;;;;;5.35;1.50;;;;;;;15.77;59.73;100892.75;4937657;28;119553;-73
2022/11/05 10:45:43;;;;;;;3.00;0.95;;;;;;;15.82;60.08;100894.84;4939134;28;119490;-75
2022/11/05 10:48:38;;;;;;;5.40;1.00;;;;;;;15.89;59.60;100897.22;4939351;28;119707;-75
2022/11/05 10:51:06;;;;;;;4.35;1.13;;;;;;;15.98;59.83;100893.56;4941809;28;119775;-72
2022/11/05 10:54:10;;;;;;;6.47;1.05;;;;;;;16.07;59.26;100892.66;4939753;28;120514;-71
2022/11/05 10:56:38;;;;;;;5.13;1.10;;;;;;;16.12;59.01;100894.75;4938028;28;119995;-78
2022/11/05 10:59:18;;;;;;;5.90;1.00;;;;;;;16.12;59.02;100889.22;4943184;28;120097;-73
2022/11/05 11:01:45;;;;;;;6.03;1.42;;;;;;;16.14;59.42;100900.56;4939658;28;119524;-77
2022/11/05 11:04:10;;;;;;;6.55;1.33;;;;;;;16.19;59.65;100897.88;4941983;28;120182;-72
2022/11/05 11:06:37;;;;;;;6.33;1.20;;;;;;;16.24;59.47;100897.19;4925426;28;120195;-77
2022/11/05 11:09:27;;;;;;;3.50;1.10;;;;;;;16.34;59.22;100892.28;4943322;28;119638;-76
2022/11/05 11:12:12;;;;;;;4.28;1.00;;;;;;;16.37;58.67;100888.53;4942607;28;119990;-70
2022/11/05 11:14:39;;;;;;;6.28;1.10;;;;;;;16.39;59.27;100888.81;4940895;28;120066;-70
2022/11/05 11:17:30;;;;;;;5.38;1.00;;;;;;;16.39;59.45;100890.81;4934133;28;119739;-74
2022/11/05 11:20:15;;;;;;;6.47;1.35;;;;;;;16.34;59.30;100891.53;4928866;28;119431;-71
2022/11/05 11:22:41;;;;;;;4.72;1.23;;;;;;;16.29;59.73;100904.03;4945871;28;119609;-73
2022/11/05 11:25:49;;;;;;;5.68;1.20;;;;;;;16.34;59.85;100914.44;4941421;28;119634;-75
2022/11/05 11:28:42;;;;;;;5.38;1.20;;;;;;;16.44;59.37;100909.50;4943063;28;120004;-73
2022/11/05 11:31:10;;;;;;;5.40;1.10;;;;;;;16.56;59.46;100916.66;4940300;28;120427;-73
2022/11/05 11:33:38;;;;;;;7.35;2.15;;;;;;;16.67;59.61;100905.00;4943424;28;120142;-72
2022/11/05 11:36:05;;;;;;;6.63;1.00;;;;;;;16.78;59.13;100907.88;4955489;28;121537;-72
2022/11/05 11:38:34;;;;;;;5.10;0.90;;;;;;;16.77;58.61;100903.59;4923758;28;119688;-76
2022/11/05 11:41:19;;;;;;;5.43;1.10;;;;;;;16.86;58.35;100911.75;4939952;28;120002;-76
2022/11/05 11:43:45;;;;;;;4.10;1.00;;;;;;;16.89;58.38;100908.00;4938639;28;120087;-78
2022/11/05 11:46:16;;;;;;;4.88;1.15;;;;;;;17.01;59.10;100909.63;4944133;28;119797;-72
2022/11/05 11:48:47;;;;;;;6.40;1.90;;;;;;;17.11;57.75;100913.78;4924116;28;119989;-77
2022/11/05 11:51:44;;;;;;;5.93;1.10;;;;;;;17.09;57.19;100910.72;4940758;28;119663;-74
2022/11/05 11:54:23;;;;;;;6.28;2.65;;;;;;;17.07;57.90;100909.69;4936527;28;120285;-74
2022/11/05 11:56:49;;;;;;;7.05;1.30;;;;;;;17.05;57.94;100907.44;4941641;28;120927;-73
2022/11/05 11:59:23;;;;;;;7.00;1.30;;;;;;;17.08;58.45;100895.34;4941629;28;119587;-73
2022/11/05 12:02:13;;;;;;;7.45;2.30;;;;;;;17.19;58.82;100900.97;4940861;28;120074;-73
2022/11/05 12:05:04;;;;;;;6.05;1.30;;;;;;;17.29;57.77;100909.91;4938502;28;119670;-74
2022/11/05 12:07:53;;;;;;;8.43;1.70;;;;;;;17.33;57.88;100909.69;4942532;28;119938;-74
2022/11/05 12:10:22;;;;;;;7.22;1.50;;;;;;;17.36;57.18;100903.91;4943396;28;120107;-73
2022/11/05 12:12:56;;;;;;;9.10;1.70;;;;;;;17.22;56.53;100895.72;4922183;28;120712;-72
2022/11/05 12:15:34;;;;;;;6.88;1.48;;;;;;;17.09;56.71;100898.88;4934364;28;119947;-73
2022/11/05 12:18:08;;;;;;;7.32;1.45;;;;;;;16.94;57.28;100899.00;4931646;28;120050;-73
2022/11/05 12:21:02;;;;;;;5.80;1.52;;;;;;;16.79;57.96;100912.94;4933750;28;120327;-77